Time;durP1;ratioP1;P1;durP2;ratioP2;P2;SDS_P1;SDS_P2;PMS_P1;PMS_P2;Temp;Humidity;BMP_temperature;BMP_pressure;BME280_temperature;BME280_humidity;BME280_pressure;Samples;Min_cycle;Max_cycle;Signal;HPM_P1;HPM_P2
2023/11/05 00:01:18;;;;;;;6.97;3.30;;;;;;;25.82;40.42;97585.87;4484517;32;33160;-65
2023/11/05 00:03:46;;;;;;;7.00;3.37;;;;;;;25.82;40.51;97586.69;4484383;32;33941;-65
2023/11/05 00:06:14;;;;;;;6.12;3.30;;;;;;;25.82;40.53;97574.94;4484471;32;34069;-65
2023/11/05 00:08:41;;;;;;;8.18;3.37;;;;;;;25.80;40.62;97583.44;4484385;32;33776;-64
2023/11/05 00:11:09;;;;;;;8.88;3.78;;;;;;;25.80;40.68;97566.25;4484293;32;33546;-65
2023/11/05 00:13:37;;;;;;;6.87;3.15;;;;;;;25.82;41.20;97577.69;4484481;32;34747;-65
2023/11/05 00:16:04;;;;;;;7.07;3.60;;;;;;;25.77;41.20;97575.03;4483076;31;34164;-65
2023/11/05 00:18:32;;;;;;;5.40;3.28;;;;;;;25.76;41.27;97579.69;4484223;32;34587;-65
2023/11/05 00:21:00;;;;;;;6.03;3.22;;;;;;;25.76;41.33;97579.69;4484355;32;33581;-65
2023/11/05 00:23:27;;;;;;;6.05;3.20;;;;;;;25.74;41.45;97583.78;4484435;32;34670;-65
2023/11/05 00:25:55;;;;;;;6.62;3.40;;;;;;;25.75;41.54;97583.50;4484103;32;33823;-64
2023/11/05 00:28:23;;;;;;;6.30;2.90;;;;;;;25.73;41.60;97582.97;4484366;32;34159;-65
2023/11/05 00:30:51;;;;;;;7.60;3.53;;;;;;;25.70;41.60;97586.31;4484267;32;34221;-65
2023/11/05 00:33:19;;;;;;;5.95;3.12;;;;;;;25.66;41.61;97590.72;4483992;32;34590;-65
2023/11/05 00:35:46;;;;;;;6.95;3.25;;;;;;;25.67;41.71;97570.50;4484238;32;34489;-65
2023/11/05 00:38:14;;;;;;;5.82;2.87;;;;;;;25.66;41.66;97566.16;4484220;32;34417;-65
2023/11/05 00:40:41;;;;;;;7.68;3.00;;;;;;;25.66;41.69;97577.06;4484018;32;33337;-65
2023/11/05 00:43:09;;;;;;;11.12;3.60;;;;;;;25.63;41.68;97573.00;4484218;32;33974;-64
2023/11/05 00:45:37;;;;;;;5.93;3.15;;;;;;;25.61;41.77;97583.41;4484170;32;34023;-65
2023/11/05 00:48:05;;;;;;;6.70;3.28;;;;;;;25.60;41.84;97580.97;4483817;32;34886;-64
2023/11/05 00:50:33;;;;;;;7.40;3.25;;;;;;;25.60;41.79;97572.75;4484157;32;33379;-65
2023/11/05 00:53:00;;;;;;;6.60;3.55;;;;;;;25.57;41.77;97566.00;4484040;32;33766;-65
2023/11/05 00:55:28;;;;;;;8.07;3.67;;;;;;;25.58;41.83;97564.06;4483907;32;34785;-64
2023/11/05 00:57:55;;;;;;;6.60;3.17;;;;;;;25.56;41.96;97569.84;4483909;32;35053;-65
2023/11/05 01:00:23;;;;;;;5.50;2.47;;;;;;;25.55;41.99;97573.66;4484022;32;34466;-65
2023/11/05 01:02:54;;;;;;;7.57;3.08;;;;;;;25.54;41.94;97574.75;4484015;32;33820;-64
2023/11/05 01:05:22;;;;;;;5.78;3.00;;;;;;;25.54;41.86;97572.03;4481805;32;35303;-64
2023/11/05 01:07:49;;;;;;;5.87;2.90;;;;;;;25.52;41.82;97574.25;4483748;32;34585;-64
2023/11/05 01:10:17;;;;;;;5.62;2.97;;;;;;;25.52;41.78;97568.78;4483918;32;33522;-64
2023/11/05 01:12:44;;;;;;;6.32;3.05;;;;;;;25.51;41.86;97569.06;4483902;32;34056;-65
2023/11/05 01:15:12;;;;;;;5.97;3.05;;;;;;;25.50;41.99;97573.72;4483517;32;33261;-65
2023/11/05 01:17:40;;;;;;;7.32;3.30;;;;;;;25.49;41.92;97572.09;4483811;32;34087;-65
2023/11/05 01:20:08;;;;;;;8.23;3.10;;;;;;;25.48;41.95;97567.75;4483684;32;33438;-64
2023/11/05 01:22:36;;;;;;;7.15;3.05;;;;;;;25.47;42.01;97568.88;4483230;32;33946;-64
2023/11/05 01:25:05;;;;;;;5.82;3.15;;;;;;;25.46;42.07;97567.25;4483764;32;33760;-64
2023/11/05 01:27:33;;;;;;;7.50;3.30;;;;;;;25.45;42.14;97568.31;4483665;32;34386;-64
2023/11/05 01:30:00;;;;;;;6.25;3.12;;;;;;;25.44;42.05;97570.25;4483449;32;33355;-64
2023/11/05 01:32:28;;;;;;;5.45;2.72;;;;;;;25.45;42.03;97562.87;4483530;32;34979;-64
2023/11/05 01:34:55;;;;;;;4.93;2.58;;;;;;;25.43;42.08;97554.16;4483791;32;34785;-65
2023/11/05 01:37:23;;;;;;;6.55;2.78;;;;;;;25.43;42.08;97551.44;4483337;32;33956;-64
2023/11/05 01:39:51;;;;;;;6.97;3.60;;;;;;;25.41;42.17;97543.56;4483409;32;33422;-65
2023/11/05 01:42:18;;;;;;;5.50;3.08;;;;;;;25.41;42.20;97532.63;4483589;32;33826;-64
2023/11/05 01:44:46;;;;;;;6.90;3.10;;;;;;;25.41;42.18;97518.16;4483293;32;33995;-64
2023/11/05 01:47:14;;;;;;;5.07;2.90;;;;;;;25.40;42.30;97519.25;4482998;32;34220;-65
2023/11/05 01:49:41;;;;;;;6.05;3.12;;;;;;;25.40;42.29;97517.34;4481994;32;33462;-64
2023/11/05 01:52:09;;;;;;;5.43;2.75;;;;;;;25.39;42.32;97520.38;4481943;32;34051;-64
2023/11/05 01:54:37;;;;;;;5.72;3.05;;;;;;;25.38;42.41;97519.56;4483592;32;33786;-64
2023/11/05 01:57:05;;;;;;;5.70;3.08;;;;;;;25.38;42.36;97527.75;4483244;32;33896;-64
2023/11/05 01:59:33;;;;;;;5.50;2.67;;;;;;;25.38;42.34;97521.50;4481763;32;33402;-64
2023/11/05 02:02:01;;;;;;;6.05;2.90;;;;;;;25.37;42.27;97512.50;4468989;32;33734;-64
2023/11/05 02:04:29;;;;;;;5.65;3.20;;;;;;;25.37;42.22;97506.22;4483066;32;34166;-64
2023/11/05 02:06:56;;;;;;;4.90;2.80;;;;;;;25.36;42.30;97507.31;4481978;32;33968;-65
2023/11/05 02:09:24;;;;;;;6.97;3.20;;;;;;;25.36;42.30;97502.66;4483200;32;33547;-64
2023/11/05 02:11:52;;;;;;;7.00;2.65;;;;;;;25.35;42.27;97503.75;4481676;32;33876;-65
2023/11/05 02:14:20;;;;;;;5.32;2.67;;;;;;;25.35;42.39;97513.88;4478929;32;33645;-64
2023/11/05 02:16:47;;;;;;;5.03;2.60;;;;;;;25.35;42.37;97513.88;4468775;32;34597;-64
2023/11/05 02:19:15;;;;;;;6.93;2.67;;;;;;;25.33;42.45;97514.19;4469596;32;34279;-64
2023/11/05 02:21:45;;;;;;;5.75;3.00;;;;;;;25.32;42.43;97506.25;4468147;32;34696;-64
2023/11/05 02:24:13;;;;;;;6.05;2.72;;;;;;;25.32;42.49;97512.56;4469171;32;33881;-65
2023/11/05 02:26:41;;;;;;;5.62;2.72;;;;;;;25.32;42.43;97507.09;4469521;32;33615;-65
2023/11/05 02:29:09;;;;;;;5.40;2.97;;;;;;;25.31;42.41;97497.25;4469348;32;34414;-65
2023/11/05 02:31:37;;;;;;;4.95;2.58;;;;;;;25.31;42.42;97500.00;4469512;32;33739;-65
2023/11/05 02:34:04;;;;;;;7.07;2.75;;;;;;;25.30;42.47;97495.66;4469702;32;34842;-65
2023/11/05 02:36:32;;;;;;;6.05;3.00;;;;;;;25.30;42.46;97494.84;4469281;32;33695;-65
2023/11/05 02:39:00;;;;;;;4.82;2.58;;;;;;;25.29;42.37;97485.03;4469600;32;34592;-65
2023/11/05 02:41:27;;;;;;;5.03;2.65;;;;;;;25.28;42.41;97486.16;4470520;32;33951;-65
2023/11/05 02:43:55;;;;;;;5.28;2.50;;;;;;;25.28;42.54;97486.16;4485107;32;34874;-65
2023/11/05 02:46:22;;;;;;;4.90;2.67;;;;;;;25.27;42.62;97493.50;4485330;32;33853;-65
2023/11/05 02:48:50;;;;;;;5.60;2.70;;;;;;;25.27;42.56;97498.97;4484732;32;33566;-65
2023/11/05 02:51:18;;;;;;;6.03;3.17;;;;;;;25.26;42.59;97483.69;4485073;32;34866;-65
2023/11/05 02:53:45;;;;;;;5.30;2.60;;;;;;;25.26;42.51;97483.69;4484998;32;34717;-65
2023/11/05 02:56:13;;;;;;;5.28;2.40;;;;;;;25.25;42.68;97470.34;4484769;32;34011;-65
2023/11/05 02:58:42;;;;;;;5.53;2.70;;;;;;;25.25;42.66;97467.62;4484989;32;34294;-64
2023/11/05 03:01:10;;;;;;;4.53;2.40;;;;;;;25.25;42.69;97462.97;4484888;32;33932;-65
2023/11/05 03:03:38;;;;;;;5.62;2.83;;;;;;;25.25;42.40;97462.16;4484753;32;34027;-65
2023/11/05 03:06:06;;;;;;;6.20;2.53;;;;;;;25.25;42.47;97462.97;4484923;32;34368;-64
2023/11/05 03:08:33;;;;;;;5.93;3.00;;;;;;;25.25;42.48;97456.69;4484865;32;33370;-65
2023/11/05 03:11:01;;;;;;;3.78;2.33;;;;;;;25.25;42.40;97453.97;4484670;32;34552;-65
2023/11/05 03:13:29;;;;;;;4.93;2.37;;;;;;;25.24;42.46;97431.34;4484854;32;34007;-65
2023/11/05 03:15:56;;;;;;;6.47;2.70;;;;;;;25.25;42.40;97418.50;4484763;32;34548;-65
2023/11/05 03:18:24;;;;;;;5.10;2.53;;;;;;;25.25;42.38;97410.31;4484703;32;32947;-65
2023/11/05 03:20:52;;;;;;;7.18;2.50;;;;;;;25.24;42.38;97400.50;4484860;32;34754;-65
2023/11/05 03:23:19;;;;;;;5.32;2.72;;;;;;;25.23;42.35;97391.50;4484759;32;34896;-65
2023/11/05 03:25:47;;;;;;;5.72;2.55;;;;;;;25.23;42.30;97391.50;4484843;32;34245;-65
2023/11/05 03:28:49;;;;;;;5.00;2.55;;;;;;;25.23;42.21;97388.78;4484356;32;33724;-65
2023/11/05 03:31:16;;;;;;;4.37;2.50;;;;;;;25.24;42.43;97395.03;4484958;32;34742;-66
2023/11/05 03:33:44;;;;;;;8.88;3.00;;;;;;;25.21;42.39;97388.25;4484744;32;35420;-66
2023/11/05 03:36:12;;;;;;;4.00;2.35;;;;;;;25.21;42.31;97398.34;4484473;32;34239;-66
2023/11/05 03:38:40;;;;;;;5.12;2.50;;;;;;;25.19;42.36;97393.22;4483580;32;33401;-66
2023/11/05 03:41:08;;;;;;;5.40;2.55;;;;;;;25.19;42.31;97390.47;4484780;32;34081;-65
2023/11/05 03:43:35;;;;;;;4.07;2.47;;;;;;;25.18;42.38;97389.66;4484583;32;33857;-66
2023/11/05 03:46:03;;;;;;;6.03;2.58;;;;;;;25.17;42.31;97389.94;4484888;32;34606;-66
2023/11/05 03:48:31;;;;;;;5.93;2.75;;;;;;;25.18;42.38;97386.94;4484354;32;34339;-65
2023/11/05 03:50:59;;;;;;;6.68;2.95;;;;;;;25.18;42.54;97375.19;4484387;32;33921;-65
2023/11/05 03:53:26;;;;;;;5.65;2.62;;;;;;;25.17;42.38;97351.75;4484941;32;34948;-65
2023/11/05 03:55:54;;;;;;;8.05;2.50;;;;;;;25.15;42.42;97346.59;4484614;32;33930;-65
2023/11/05 03:58:21;;;;;;;6.37;2.60;;;;;;;25.15;42.43;97352.03;4484354;32;34180;-65
2023/11/05 04:00:49;;;;;;;4.87;2.60;;;;;;;25.16;42.46;97366.50;4484436;32;34364;-65
2023/11/05 04:03:17;;;;;;;5.95;2.42;;;;;;;25.16;42.34;97371.97;4484588;32;33765;-66
2023/11/05 04:05:45;;;;;;;5.25;2.50;;;;;;;25.15;42.38;97362.16;4484269;32;33898;-66
2023/11/05 04:08:12;;;;;;;4.55;2.45;;;;;;;25.15;42.29;97352.03;4484519;32;34061;-66
2023/11/05 04:10:43;;;;;;;4.97;2.33;;;;;;;25.14;42.37;97335.97;4484332;32;34055;-66
2023/11/05 04:13:10;;;;;;;4.15;2.22;;;;;;;25.14;42.32;97335.97;4484499;32;34886;-66
2023/11/05 04:15:38;;;;;;;5.12;2.62;;;;;;;25.13;42.28;97307.88;4484279;31;34920;-64
2023/11/05 04:18:06;;;;;;;4.32;2.12;;;;;;;25.13;42.32;97296.97;4484339;32;33409;-65
2023/11/05 04:20:33;;;;;;;4.18;2.30;;;;;;;25.12;42.40;97287.13;4484285;32;33568;-66
2023/11/05 04:23:01;;;;;;;6.87;2.58;;;;;;;25.13;42.33;97288.78;4484347;32;33969;-66
2023/11/05 04:25:28;;;;;;;5.62;2.70;;;;;;;25.12;42.41;97276.22;4484344;32;34499;-66
2023/11/05 04:27:56;;;;;;;5.30;2.28;;;;;;;25.12;42.42;97272.69;4484215;32;34332;-65
2023/11/05 04:30:23;;;;;;;5.70;2.50;;;;;;;25.11;42.50;97260.97;4484309;32;33987;-66
2023/11/05 04:32:52;;;;;;;6.95;2.50;;;;;;;25.12;42.43;97259.06;4484614;32;34955;-66
2023/11/05 04:35:19;;;;;;;5.20;2.62;;;;;;;25.11;42.36;97250.06;4484105;32;33761;-65
2023/11/05 04:37:47;;;;;;;4.70;2.70;;;;;;;25.11;42.37;97243.78;4484445;32;33561;-65
2023/11/05 04:40:15;;;;;;;6.65;2.62;;;;;;;25.10;42.36;97243.00;4482998;32;33245;-65
2023/11/05 04:42:42;;;;;;;4.60;2.22;;;;;;;25.10;42.33;97247.63;4484006;32;33885;-65
2023/11/05 04:45:10;;;;;;;4.65;2.40;;;;;;;25.09;42.39;97252.28;4484226;32;34667;-66
2023/11/05 04:47:38;;;;;;;5.07;2.70;;;;;;;25.10;42.29;97240.25;4483973;32;33610;-65
2023/11/05 04:50:05;;;;;;;5.15;2.50;;;;;;;25.09;42.37;97227.72;4484065;32;33976;-66
2023/11/05 04:52:33;;;;;;;5.53;2.53;;;;;;;25.08;42.45;97215.16;4484431;32;34621;-66
2023/11/05 04:55:01;;;;;;;4.78;2.40;;;;;;;25.07;42.45;97218.19;4483985;32;33945;-66
2023/11/05 04:57:28;;;;;;;5.78;2.50;;;;;;;25.07;42.46;97191.72;4483928;32;33197;-65
2023/11/05 04:59:56;;;;;;;5.65;2.12;;;;;;;25.06;42.51;97208.38;4484070;32;34715;-66
2023/11/05 05:02:24;;;;;;;4.68;2.37;;;;;;;25.06;42.52;97203.72;4483937;32;33928;-65
2023/11/05 05:04:51;;;;;;;5.78;2.53;;;;;;;25.05;42.52;97202.13;4483906;32;34679;-66
2023/11/05 05:07:19;;;;;;;3.78;2.05;;;;;;;25.06;42.42;97202.94;4483958;32;34396;-65
2023/11/05 05:09:47;;;;;;;5.97;2.50;;;;;;;25.04;42.41;97197.78;4483989;32;33834;-65
2023/11/05 05:12:14;;;;;;;6.43;3.00;;;;;;;25.05;42.41;97204.84;4483965;32;34440;-66
2023/11/05 05:14:42;;;;;;;5.82;2.40;;;;;;;25.04;42.43;97211.41;4483874;32;33942;-66
2023/11/05 05:17:10;;;;;;;3.10;1.92;;;;;;;25.03;42.50;97217.97;4483951;32;33350;-66
2023/11/05 05:19:38;;;;;;;4.10;2.20;;;;;;;25.03;42.53;97215.22;4483877;32;34497;-65
2023/11/05 05:22:05;;;;;;;4.72;2.75;;;;;;;25.03;42.49;97214.44;4483628;32;33863;-65
2023/11/05 05:24:34;;;;;;;3.55;1.85;;;;;;;25.03;42.48;97217.16;4482551;32;33954;-65
2023/11/05 05:27:01;;;;;;;5.05;2.65;;;;;;;25.02;42.50;97199.97;4481907;32;34103;-65
2023/11/05 05:29:29;;;;;;;6.22;2.35;;;;;;;25.03;42.48;97187.16;4483595;32;33716;-65
2023/11/05 05:31:57;;;;;;;6.15;2.08;;;;;;;25.02;42.42;97188.25;4483539;32;34172;-65
2023/11/05 05:34:25;;;;;;;4.30;2.40;;;;;;;25.01;42.48;97198.38;4483605;32;34454;-64
2023/11/05 05:36:52;;;;;;;4.62;2.70;;;;;;;25.01;42.49;97206.56;4483496;32;34048;-66
2023/11/05 05:39:20;;;;;;;4.70;2.72;;;;;;;25.01;42.35;97217.47;4483401;32;33890;-64
2023/11/05 05:41:48;;;;;;;3.78;2.10;;;;;;;25.01;42.58;97214.75;4483538;32;34772;-64
2023/11/05 05:44:15;;;;;;;4.82;2.35;;;;;;;25.00;42.55;97198.69;4483231;32;33933;-65
2023/11/05 05:46:43;;;;;;;4.43;2.00;;;;;;;24.99;42.51;97197.84;4483276;32;33560;-65
2023/11/05 05:49:10;;;;;;;4.10;2.00;;;;;;;25.00;42.63;97193.22;4483023;32;33882;-65
2023/11/05 05:51:38;;;;;;;5.57;2.40;;;;;;;24.99;42.58;97175.22;4484793;32;34874;-64
2023/11/05 05:54:06;;;;;;;3.97;2.00;;;;;;;24.99;42.63;97153.38;4485263;32;34893;-65
2023/11/05 05:56:33;;;;;;;3.53;1.85;;;;;;;24.97;42.62;97123.69;4485326;32;33520;-65
2023/11/05 05:59:01;;;;;;;5.00;2.30;;;;;;;24.97;42.62;97104.59;4485508;32;34623;-65
2023/11/05 06:01:28;;;;;;;4.82;2.37;;;;;;;24.98;42.63;97113.59;4485176;32;33968;-65
2023/11/05 06:03:56;;;;;;;5.12;2.70;;;;;;;24.98;42.56;97097.22;4485377;32;33554;-65
2023/11/05 06:06:24;;;;;;;5.12;2.30;;;;;;;24.97;42.67;97111.97;4485608;32;34259;-65
2023/11/05 06:08:52;;;;;;;4.25;2.10;;;;;;;24.96;42.67;97132.19;4485145;32;33753;-65
2023/11/05 06:11:20;;;;;;;5.05;2.30;;;;;;;24.96;42.67;97124.00;4485439;32;34080;-65
2023/11/05 06:13:47;;;;;;;8.10;2.20;;;;;;;24.95;42.64;97120.47;4485354;32;33372;-65
2023/11/05 06:16:15;;;;;;;3.83;2.17;;;;;;;24.95;42.65;97131.38;4484979;31;33546;-65
2023/11/05 06:18:43;;;;;;;4.37;2.30;;;;;;;24.94;42.67;97133.28;4485388;32;34561;-65
2023/11/05 06:21:10;;;;;;;3.70;2.00;;;;;;;24.94;42.67;97135.19;4481420;32;34828;-64
2023/11/05 06:23:38;;;;;;;4.97;2.15;;;;;;;24.94;42.71;97127.81;4469344;32;33768;-64
2023/11/05 06:26:06;;;;;;;3.97;2.35;;;;;;;24.93;42.66;97115.28;4469462;32;32979;-64
2023/11/05 06:28:34;;;;;;;4.10;2.30;;;;;;;24.94;42.60;97097.00;4469516;32;33764;-65
2023/11/05 06:31:01;;;;;;;4.97;1.92;;;;;;;24.93;42.67;97068.13;4469421;32;33924;-64
2023/11/05 06:33:33;;;;;;;5.62;2.60;;;;;;;24.93;42.63;97044.37;4469412;32;34019;-64
2023/11/05 06:36:01;;;;;;;4.57;2.00;;;;;;;24.93;42.75;97062.66;4469520;32;33462;-64
2023/11/05 06:38:29;;;;;;;3.67;2.08;;;;;;;24.92;42.63;97047.41;4469236;32;34678;-64
2023/11/05 06:40:56;;;;;;;5.93;2.28;;;;;;;24.93;42.69;97029.94;4455600;32;34731;-64
2023/11/05 06:43:24;;;;;;;4.05;2.10;;;;;;;24.91;42.73;97015.81;4469212;32;34037;-64
2023/11/05 06:45:52;;;;;;;4.60;1.92;;;;;;;24.92;42.75;97026.41;4469301;32;33790;-64
2023/11/05 06:48:19;;;;;;;5.80;1.83;;;;;;;24.92;42.71;97022.88;4474716;32;33742;-64
2023/11/05 06:50:47;;;;;;;3.53;1.87;;;;;;;24.91;42.69;97016.59;4484991;32;34777;-64
2023/11/05 06:53:15;;;;;;;5.30;2.42;;;;;;;24.91;42.73;97011.16;4484871;32;33912;-64
2023/11/05 06:55:42;;;;;;;3.60;2.22;;;;;;;24.91;42.80;96993.97;4485219;32;33835;-64
2023/11/05 06:58:11;;;;;;;5.47;2.33;;;;;;;24.90;42.75;96981.44;4484796;32;34062;-64
2023/11/05 07:00:41;;;;;;;4.18;2.15;;;;;;;24.89;42.79;96975.16;4484938;32;34196;-64
2023/11/05 07:03:09;;;;;;;4.57;1.87;;;;;;;24.90;42.83;96965.06;4484185;32;33676;-64
2023/11/05 07:05:37;;;;;;;4.00;1.95;;;;;;;24.89;42.75;96952.53;4485141;32;33329;-64
2023/11/05 07:08:05;;;;;;;7.85;2.45;;;;;;;24.88;42.79;96965.38;4483641;32;33551;-64
2023/11/05 07:10:32;;;;;;;4.10;2.22;;;;;;;24.87;42.83;96944.69;4484830;32;33880;-64
2023/11/05 07:13:00;;;;;;;5.05;2.10;;;;;;;24.87;42.76;96941.94;4485170;32;34026;-64
2023/11/05 07:15:28;;;;;;;4.80;2.10;;;;;;;24.87;42.85;96946.59;4484789;32;33071;-64
2023/11/05 07:17:56;;;;;;;13.82;2.35;;;;;;;24.87;42.74;96952.06;4484687;32;33893;-64
2023/11/05 07:20:24;;;;;;;5.55;2.05;;;;;;;24.87;42.77;96954.78;4484998;32;34798;-64
2023/11/05 07:22:52;;;;;;;4.40;2.40;;;;;;;24.88;42.72;96942.75;4484720;32;33624;-64
2023/11/05 07:25:19;;;;;;;4.82;1.90;;;;;;;24.87;42.70;96947.41;4484777;32;34296;-64
2023/11/05 07:27:47;;;;;;;3.97;1.87;;;;;;;24.86;42.70;96921.25;4484637;32;34822;-64
2023/11/05 07:30:15;;;;;;;4.82;1.77;;;;;;;24.87;42.70;96930.25;4485022;32;34159;-64
2023/11/05 07:32:42;;;;;;;4.60;2.15;;;;;;;24.86;42.78;96929.44;4484986;32;34158;-64
2023/11/05 07:35:10;;;;;;;4.65;2.10;;;;;;;24.86;42.78;96918.53;4484494;32;34381;-64
2023/11/05 07:37:38;;;;;;;4.10;1.73;;;;;;;24.87;42.73;96919.34;4484551;32;34830;-64
2023/11/05 07:40:06;;;;;;;3.42;2.05;;;;;;;24.87;42.79;96913.87;4484717;32;34720;-64
2023/11/05 07:42:36;;;;;;;4.95;1.95;;;;;;;24.85;42.82;96911.44;4484490;32;34203;-65
2023/11/05 07:45:05;;;;;;;3.10;1.87;;;;;;;24.86;42.85;96904.09;4484770;32;33167;-64
2023/11/05 07:47:33;;;;;;;4.25;2.00;;;;;;;24.85;42.78;96910.62;4484402;32;33924;-64
2023/11/05 07:50:00;;;;;;;3.40;1.98;;;;;;;24.84;42.84;96907.09;4484421;32;34670;-64
2023/11/05 07:52:29;;;;;;;4.60;2.22;;;;;;;24.84;42.81;96898.91;4484588;32;34662;-64
2023/11/05 07:54:57;;;;;;;5.25;1.90;;;;;;;24.84;42.89;96900.84;4470281;32;32334;-65
2023/11/05 07:57:50;;;;;;;4.05;2.17;;;;;;;24.83;42.87;96908.22;4456572;32;33389;-66
2023/11/05 08:00:23;;;;;;;3.53;1.80;;;;;;;24.83;42.87;96904.69;4484447;32;34157;-64
2023/11/05 08:02:51;;;;;;;4.15;2.20;;;;;;;24.83;42.89;96899.22;4484546;32;34097;-64
2023/11/05 08:05:19;;;;;;;3.83;1.80;;;;;;;24.82;42.93;96894.91;4484725;32;33541;-64
2023/11/05 08:07:47;;;;;;;3.35;1.83;;;;;;;24.82;43.00;96887.53;4484332;32;33873;-65
2023/11/05 08:10:17;;;;;;;4.40;1.90;;;;;;;24.82;43.05;96881.25;4484666;32;33818;-65
2023/11/05 08:12:45;;;;;;;4.50;2.05;;;;;;;24.82;43.04;96881.25;4484810;32;33605;-64
2023/11/05 08:15:13;;;;;;;4.28;1.90;;;;;;;24.83;43.05;96912.88;4484241;31;34103;-65
2023/11/05 08:17:41;;;;;;;3.70;1.98;;;;;;;24.82;43.00;96914.00;4484381;32;34744;-64
2023/11/05 08:20:11;;;;;;;3.70;2.03;;;;;;;24.82;43.05;96905.81;4484355;32;33981;-64
2023/11/05 08:22:43;;;;;;;2.60;1.70;;;;;;;24.82;43.01;96911.25;4456694;32;34869;-64
2023/11/05 08:25:12;;;;;;;6.35;2.40;;;;;;;24.82;43.01;96927.63;4454454;32;32611;-65
2023/11/05 08:27:40;;;;;;;4.53;2.00;;;;;;;24.82;43.09;96897.63;4454618;32;33835;-66
2023/11/05 08:30:13;;;;;;;4.60;2.03;;;;;;;24.81;42.98;96906.94;4454700;32;33705;-65
2023/11/05 08:32:41;;;;;;;5.80;2.05;;;;;;;24.81;43.03;96910.47;4468592;32;34684;-65
2023/11/05 08:35:09;;;;;;;6.30;2.12;;;;;;;24.82;42.91;96890.25;4468614;32;33511;-66
2023/11/05 08:37:37;;;;;;;7.68;2.00;;;;;;;24.77;41.14;96879.44;4468523;32;34750;-66
2023/11/05 08:40:09;;;;;;;5.47;2.05;;;;;;;24.71;41.18;96849.84;4468472;32;34683;-66
2023/11/05 08:42:37;;;;;;;6.47;2.08;;;;;;;24.70;41.95;96840.88;4468383;32;33795;-66
2023/11/05 08:45:06;;;;;;;5.20;2.25;;;;;;;24.70;42.15;96840.88;4468460;32;33475;-66
2023/11/05 08:47:34;;;;;;;3.25;1.60;;;;;;;24.71;42.17;96833.50;4468852;32;34054;-66
2023/11/05 08:50:03;;;;;;;4.95;2.08;;;;;;;24.71;42.18;96825.31;4483953;32;34789;-66
2023/11/05 08:52:31;;;;;;;4.28;1.95;;;;;;;24.70;42.14;96821.78;4483895;32;34521;-69
2023/11/05 08:54:59;;;;;;;6.07;1.90;;;;;;;24.71;42.17;96831.56;4484245;32;33051;-68
2023/11/05 08:57:28;;;;;;;5.60;2.15;;;;;;;24.72;42.08;96818.78;4483923;32;34723;-66
2023/11/05 08:59:55;;;;;;;7.47;2.35;;;;;;;24.74;42.13;96824.72;4483986;32;34729;-66
2023/11/05 09:02:23;;;;;;;8.38;2.03;;;;;;;24.72;42.15;96822.31;4484015;32;33614;-66
2023/11/05 09:04:52;;;;;;;4.90;1.92;;;;;;;24.73;42.08;96823.09;4483912;32;33337;-66
2023/11/05 09:07:19;;;;;;;5.50;2.00;;;;;;;24.73;42.04;96839.47;4483967;32;33880;-66
2023/11/05 09:09:47;;;;;;;4.47;1.90;;;;;;;24.73;42.00;96836.75;4483938;32;34761;-66
2023/11/05 09:12:14;;;;;;;6.75;1.70;;;;;;;24.72;42.06;96855.03;4483603;32;34065;-66
2023/11/05 09:14:42;;;;;;;5.50;2.25;;;;;;;24.75;41.86;96876.22;4483893;32;33718;-66
2023/11/05 09:17:10;;;;;;;9.82;2.10;;;;;;;24.85;41.52;96989.72;4483834;32;33519;-67
2023/11/05 09:19:38;;;;;;;8.75;2.05;;;;;;;24.83;41.67;97044.56;4483638;32;33614;-66
2023/11/05 09:22:05;;;;;;;6.45;2.05;;;;;;;24.84;41.75;96963.56;4483844;32;33137;-67
2023/11/05 09:24:34;;;;;;;4.97;1.70;;;;;;;24.89;41.79;96971.62;4479037;32;33389;-65
2023/11/05 09:27:02;;;;;;;4.60;1.80;;;;;;;24.96;41.82;96991.16;4496109;31;33682;-65
2023/11/05 09:29:29;;;;;;;12.02;2.30;;;;;;;25.06;41.85;96957.38;4499560;31;33953;-65
2023/11/05 09:31:57;;;;;;;4.07;1.77;;;;;;;25.16;41.87;96880.78;4485423;32;34060;-65
2023/11/05 09:34:25;;;;;;;4.30;1.83;;;;;;;25.25;41.80;96843.47;4485389;32;33757;-65
2023/11/05 09:36:52;;;;;;;8.43;1.90;;;;;;;25.35;41.71;96796.03;4485404;32;34536;-65
2023/11/05 09:39:20;;;;;;;5.78;2.42;;;;;;;25.44;41.65;96775.03;4485188;32;34462;-65
2023/11/05 09:41:48;;;;;;;6.22;2.25;;;;;;;25.52;41.63;96784.41;4484273;32;34029;-65
2023/11/05 09:44:16;;;;;;;8.52;2.03;;;;;;;25.58;41.59;96805.78;4485243;32;34081;-65
2023/11/05 09:46:45;;;;;;;4.30;1.90;;;;;;;25.64;41.52;96785.44;4483886;32;34276;-65
2023/11/05 09:49:12;;;;;;;6.70;1.52;;;;;;;25.69;41.49;96748.97;4471040;32;33548;-65
2023/11/05 09:51:40;;;;;;;4.28;1.62;;;;;;;25.76;41.40;96727.53;4471453;32;34643;-65
2023/11/05 09:54:08;;;;;;;5.60;1.90;;;;;;;25.80;41.34;96733.97;4485169;32;33489;-65
2023/11/05 09:56:36;;;;;;;4.53;1.90;;;;;;;25.86;41.25;96764.69;4485321;32;33918;-65
2023/11/05 09:59:03;;;;;;;4.55;1.90;;;;;;;25.93;41.16;96737.72;4470923;32;33536;-65
2023/11/05 10:01:35;;;;;;;4.40;1.55;;;;;;;26.00;41.10;96691.59;4484946;32;34155;-65
2023/11/05 10:04:06;;;;;;;5.30;1.45;;;;;;;26.08;41.04;96665.44;4485267;32;33674;-65
2023/11/05 10:06:33;;;;;;;4.82;1.83;;;;;;;26.14;41.03;96692.28;4471103;32;34187;-65
2023/11/05 10:09:04;;;;;;;5.40;1.60;;;;;;;26.23;40.96;96718.81;4484951;32;34087;-66
2023/11/05 10:11:32;;;;;;;8.48;2.70;;;;;;;26.30;40.93;96747.31;4485291;32;33848;-63
2023/11/05 10:14:00;;;;;;;3.95;1.40;;;;;;;26.38;40.83;96773.81;4485146;32;32524;-64
2023/11/05 10:16:29;;;;;;;10.07;1.87;;;;;;;26.44;40.76;96778.06;4483669;32;34361;-63
2023/11/05 10:19:00;;;;;;;4.40;1.77;;;;;;;26.49;40.71;96708.75;4484874;32;34395;-63
2023/11/05 10:21:37;;;;;;;8.38;2.28;;;;;;;26.55;40.65;96693.00;4484889;32;34077;-64
2023/11/05 10:24:07;;;;;;;5.50;1.65;;;;;;;26.59;40.55;96757.66;4471101;32;34072;-63
2023/11/05 10:26:35;;;;;;;5.30;1.83;;;;;;;26.60;40.45;96711.97;4484820;32;33794;-63
2023/11/05 10:29:02;;;;;;;5.82;1.55;;;;;;;26.62;40.35;96685.91;4483489;32;33816;-63
2023/11/05 10:31:30;;;;;;;4.75;1.75;;;;;;;26.63;40.32;96730.47;4485040;32;34258;-63
2023/11/05 10:33:59;;;;;;;5.12;2.10;;;;;;;26.62;40.26;96728.84;4485026;32;33741;-63
2023/11/05 10:36:27;;;;;;;4.50;1.77;;;;;;;26.62;40.20;96724.19;4484491;32;33921;-63
2023/11/05 10:38:55;;;;;;;4.80;1.60;;;;;;;26.63;40.10;96723.09;4484366;32;33924;-63
2023/11/05 10:41:23;;;;;;;5.05;1.80;;;;;;;26.61;40.04;96697.97;4483671;32;34009;-63
2023/11/05 10:43:51;;;;;;;5.37;2.08;;;;;;;26.60;40.08;96707.31;4483628;32;33874;-63
2023/11/05 10:46:19;;;;;;;3.42;1.55;;;;;;;26.59;40.06;96729.50;4484832;32;34642;-63
2023/11/05 10:48:48;;;;;;;8.73;2.33;;;;;;;26.57;40.15;96746.22;4484749;32;34015;-64
2023/11/05 10:51:22;;;;;;;5.12;1.70;;;;;;;26.54;40.27;96754.28;4470533;32;34848;-63
2023/11/05 10:53:50;;;;;;;5.68;2.10;;;;;;;26.52;40.14;96756.50;4483614;32;33565;-63
2023/11/05 10:56:32;;;;;;;6.10;2.12;;;;;;;26.50;40.05;96754.13;4483459;32;33800;-63
2023/11/05 10:59:02;;;;;;;4.87;2.03;;;;;;;26.50;39.98;96761.50;4484675;32;33865;-64
2023/11/05 11:01:30;;;;;;;4.28;1.58;;;;;;;26.46;39.95;96755.88;4483405;32;33544;-64
2023/11/05 11:04:09;;;;;;;8.65;1.98;;;;;;;26.44;39.94;96766.34;4483893;32;33537;-64
2023/11/05 11:06:39;;;;;;;7.05;2.10;;;;;;;26.42;39.89;96785.75;4484626;32;34655;-64
2023/11/05 11:09:09;;;;;;;4.10;1.83;;;;;;;26.38;39.90;96762.91;4484693;32;33500;-64
2023/11/05 11:11:39;;;;;;;4.05;1.95;;;;;;;26.36;39.79;96750.69;4483480;32;34826;-65
2023/11/05 11:14:08;;;;;;;8.07;2.00;;;;;;;26.36;39.63;96747.94;4483368;32;33396;-64
2023/11/05 11:16:37;;;;;;;6.93;1.73;;;;;;;26.32;39.68;96747.78;4483355;32;33841;-64
2023/11/05 11:19:14;;;;;;;4.72;1.98;;;;;;;26.29;39.79;96762.06;4484405;32;33549;-64
2023/11/05 11:21:57;;;;;;;5.22;1.95;;;;;;;26.28;39.85;96756.94;4476177;32;33815;-64
2023/11/05 11:24:33;;;;;;;4.60;2.05;;;;;;;26.26;39.93;96753.72;4485794;31;34463;-64
2023/11/05 11:27:04;;;;;;;3.90;1.70;;;;;;;26.20;39.95;96772.97;4490732;31;33510;-64
2023/11/05 11:29:38;;;;;;;5.25;1.70;;;;;;;26.19;40.01;96787.78;4484534;32;33996;-64
2023/11/05 11:32:06;;;;;;;3.58;1.67;;;;;;;26.16;40.08;96814.91;4484437;32;34538;-65
2023/11/05 11:34:34;;;;;;;6.68;1.95;;;;;;;26.14;40.19;96834.38;4484716;32;32910;-65
2023/11/05 11:37:05;;;;;;;5.35;2.10;;;;;;;26.11;40.26;96847.84;4484466;32;34863;-64
2023/11/05 11:39:33;;;;;;;5.22;1.83;;;;;;;26.09;40.30;96847.38;4484225;32;35076;-64